Time;durP1;ratioP1;P1;durP2;ratioP2;P2;SDS_P1;SDS_P2;PMS_P1;PMS_P2;Temp;Humidity;BMP_temperature;BMP_pressure;BME280_temperature;BME280_humidity;BME280_pressure;Samples;Min_cycle;Max_cycle;Signal;HPM_P1;HPM_P2
2022/01/21 00:01:24;;;;;;;16.95;3.30;;;2.20;99.90;;;;;;5120462;27;20053;-64
2022/01/21 00:03:51;;;;;;;17.55;3.85;;;2.10;99.90;;;;;;5120198;27;20130;-65
2022/01/21 00:06:16;;;;;;;14.38;3.22;;;2.10;99.90;;;;;;5134664;27;20053;-65
2022/01/21 00:08:44;;;;;;;19.35;3.70;;;2.10;99.90;;;;;;5123222;27;20038;-65
2022/01/21 00:11:10;;;;;;;13.65;2.97;;;2.10;99.90;;;;;;5140316;27;20050;-65
2022/01/21 00:13:37;;;;;;;16.88;3.78;;;2.20;99.90;;;;;;5140400;27;20474;-65
2022/01/21 00:16:05;;;;;;;14.20;2.55;;;2.10;99.90;;;;;;5126967;27;20080;-64
2022/01/21 00:18:34;;;;;;;15.40;3.05;;;2.10;99.90;;;;;;5119447;27;20474;-65
2022/01/21 00:31:58;;;;;;;13.63;2.58;;;1.90;99.90;;;;;;5125593;27;20374;-64
2022/01/21 00:34:23;;;;;;;14.00;3.00;;;1.90;99.90;;;;;;5140243;27;20035;-65
2022/01/21 00:36:50;;;;;;;13.73;3.45;;;2.00;99.90;;;;;;5132764;27;20037;-65
2022/01/21 00:39:17;;;;;;;11.65;2.80;;;2.00;99.90;;;;;;5119347;27;20118;-66
2022/01/21 00:41:55;;;;;;;15.40;2.97;;;2.00;99.90;;;;;;5119405;27;20051;-64
2022/01/21 00:44:20;;;;;;;11.40;2.30;;;2.10;99.90;;;;;;5137740;27;20042;-65
2022/01/21 00:46:46;;;;;;;12.68;2.70;;;2.20;99.90;;;;;;5137521;27;20042;-64
2022/01/21 00:49:12;;;;;;;13.55;3.13;;;2.20;99.90;;;;;;5139931;27;20043;-64
2022/01/21 00:51:37;;;;;;;12.68;2.70;;;2.20;99.90;;;;;;5122680;27;20043;-64
2022/01/21 00:54:03;;;;;;;15.15;2.70;;;2.20;99.90;;;;;;5122354;27;20126;-65
2022/01/21 00:56:28;;;;;;;16.20;3.00;;;2.10;99.90;;;;;;5157569;27;20073;-64
2022/01/21 00:58:54;;;;;;;11.75;2.60;;;2.20;99.90;;;;;;5139334;27;20084;-65
2022/01/21 01:01:20;;;;;;;12.38;2.90;;;2.20;99.90;;;;;;5157766;27;20031;-65
2022/01/21 01:03:46;;;;;;;12.95;2.38;;;2.10;99.90;;;;;;5139515;27;20038;-65
2022/01/21 01:06:12;;;;;;;13.45;2.72;;;2.10;99.90;;;;;;5143931;27;20049;-64
2022/01/21 01:08:38;;;;;;;15.18;2.55;;;2.00;99.90;;;;;;5137131;27;20034;-64
2022/01/21 01:21:46;;;;;;;18.10;2.38;;;2.00;99.90;;;;;;5137034;27;20110;-63
2022/01/21 01:29:24;;;;;;;;;;;2.00;99.90;;;;;;5124884;27;20062;-65
2022/01/21 01:31:50;;;;;;;11.68;2.08;;;2.00;99.90;;;;;;5157442;27;19962;-64
2022/01/21 01:34:17;;;;;;;12.82;2.65;;;2.00;99.90;;;;;;5138911;27;20039;-65
2022/01/21 01:36:44;;;;;;;14.52;3.20;;;2.00;99.90;;;;;;5132774;27;20517;-65
2022/01/21 01:39:35;;;;;;;12.00;2.50;;;2.10;99.90;;;;;;5118378;27;20039;-63
2022/01/21 01:50:05;;;;;;;16.60;2.83;;;2.30;99.90;;;;;;5136296;27;20058;-63
2022/01/21 01:52:31;;;;;;;13.32;2.30;;;2.30;99.90;;;;;;5117839;27;20113;-65
2022/01/21 01:54:57;;;;;;;15.70;2.60;;;2.40;99.90;;;;;;5138295;27;20043;-65
2022/01/21 01:57:23;;;;;;;11.45;2.15;;;2.30;99.90;;;;;;5138235;27;20039;-65
2022/01/21 01:59:49;;;;;;;14.02;2.45;;;2.30;99.90;;;;;;5138749;27;20034;-64
2022/01/21 02:02:19;;;;;;;11.27;2.30;;;2.30;99.90;;;;;;5156359;27;20058;-64
2022/01/21 02:04:46;;;;;;;12.38;2.30;;;2.30;99.90;;;;;;5155595;27;20035;-64
2022/01/21 02:07:13;;;;;;;10.18;1.65;;;2.30;99.90;;;;;;5117451;27;20150;-65
2022/01/21 02:09:39;;;;;;;10.43;1.92;;;2.30;99.90;;;;;;5117592;27;20467;-64
2022/01/21 02:12:06;;;;;;;14.45;2.55;;;2.30;99.90;;;;;;5117052;27;20312;-64
2022/01/21 02:14:35;;;;;;;11.18;1.55;;;2.30;99.90;;;;;;5135644;27;20337;-65
2022/01/21 02:22:17;;;;;;;11.27;2.00;;;2.20;99.90;;;;;;5156347;27;20129;-63
2022/01/21 02:24:57;;;;;;;11.13;1.73;;;2.20;99.90;;;;;;5155715;27;20049;-64
2022/01/21 02:27:22;;;;;;;9.60;1.60;;;2.20;99.90;;;;;;5117170;27;20055;-64
2022/01/21 02:29:52;;;;;;;12.60;2.15;;;2.30;99.90;;;;;;5117860;27;20046;-65
2022/01/21 02:32:20;;;;;;;9.90;2.05;;;2.30;99.90;;;;;;5116896;27;20072;-64
2022/01/21 02:34:47;;;;;;;13.48;2.30;;;2.30;99.90;;;;;;5135698;27;20100;-65
2022/01/21 02:37:16;;;;;;;13.52;2.75;;;2.30;99.90;;;;;;5146650;27;20035;-65
2022/01/21 02:39:42;;;;;;;10.88;1.95;;;2.30;99.90;;;;;;5117047;27;20109;-64
2022/01/21 02:42:08;;;;;;;9.50;1.90;;;2.30;99.90;;;;;;5135242;27;20039;-65
2022/01/21 02:44:34;;;;;;;8.20;2.00;;;2.30;99.90;;;;;;5100243;27;20043;-64
2022/01/21 02:47:02;;;;;;;10.30;1.75;;;2.30;99.90;;;;;;5135908;27;20482;-65
2022/01/21 02:49:29;;;;;;;7.97;1.73;;;2.20;99.90;;;;;;5137629;27;20087;-64
2022/01/21 02:51:57;;;;;;;11.32;1.75;;;2.20;99.90;;;;;;5137499;27;20381;-64
2022/01/21 02:54:22;;;;;;;9.77;2.00;;;2.20;99.90;;;;;;5137767;27;20102;-65
2022/01/21 02:56:49;;;;;;;9.60;1.95;;;2.20;99.90;;;;;;5136932;27;20042;-65
2022/01/21 02:59:15;;;;;;;11.77;2.20;;;2.20;99.90;;;;;;5116975;27;20042;-64
2022/01/21 03:01:42;;;;;;;10.70;2.20;;;2.20;99.90;;;;;;5116655;28;20420;-66
2022/01/21 03:04:10;;;;;;;10.32;2.13;;;2.20;99.90;;;;;;5134884;28;20060;-65
2022/01/21 03:06:37;;;;;;;15.25;2.25;;;2.30;99.90;;;;;;5150957;27;20041;-64
2022/01/21 03:09:05;;;;;;;14.32;2.10;;;2.30;99.90;;;;;;5137412;27;20035;-64
2022/01/21 03:11:30;;;;;;;10.38;1.92;;;2.20;99.90;;;;;;5137480;27;20043;-64
2022/01/21 03:13:56;;;;;;;14.27;2.15;;;2.20;99.90;;;;;;5137106;27;20073;-63
2022/01/21 03:16:24;;;;;;;12.30;2.42;;;2.20;99.90;;;;;;5122657;28;20055;-64
2022/01/21 03:18:50;;;;;;;14.18;3.13;;;2.20;99.90;;;;;;5099655;28;20040;-64
2022/01/21 03:21:16;;;;;;;8.90;1.77;;;2.20;99.90;;;;;;5116951;28;20086;-64
2022/01/21 03:23:46;;;;;;;10.90;2.42;;;2.10;99.90;;;;;;5116516;28;20713;-65
2022/01/21 03:26:14;;;;;;;13.85;2.63;;;2.10;99.90;;;;;;5151917;27;20039;-64
2022/01/21 03:28:40;;;;;;;8.73;2.13;;;2.10;99.90;;;;;;5141293;27;20100;-66
2022/01/21 03:31:06;;;;;;;9.13;1.80;;;2.10;99.90;;;;;;5141318;27;20035;-66
2022/01/21 03:33:32;;;;;;;11.95;1.70;;;2.00;99.90;;;;;;5159705;27;20039;-65
2022/01/21 03:35:57;;;;;;;14.63;2.47;;;2.00;99.90;;;;;;5149045;27;20444;-64
2022/01/21 03:38:26;;;;;;;10.30;1.80;;;2.00;99.90;;;;;;5122473;27;20066;-64
2022/01/21 03:40:52;;;;;;;9.70;2.08;;;2.00;99.90;;;;;;5159726;27;20046;-64
2022/01/21 03:43:20;;;;;;;13.20;1.60;;;2.00;99.90;;;;;;5141316;27;20454;-65
2022/01/21 03:45:46;;;;;;;12.43;1.80;;;1.90;99.90;;;;;;5139921;27;20081;-64
2022/01/21 03:48:12;;;;;;;10.13;2.70;;;2.00;99.90;;;;;;5141041;27;20047;-64
2022/01/21 03:50:37;;;;;;;10.48;2.03;;;2.00;99.90;;;;;;5141249;27;20534;-64
2022/01/21 03:53:04;;;;;;;14.73;2.17;;;2.00;99.90;;;;;;5123814;27;20134;-64
2022/01/21 03:55:31;;;;;;;10.52;1.90;;;2.00;99.90;;;;;;5152488;27;20066;-64
2022/01/21 03:57:58;;;;;;;12.02;1.88;;;1.90;99.90;;;;;;5138244;27;20035;-63
2022/01/21 04:00:27;;;;;;;6.97;1.60;;;1.90;99.90;;;;;;5138620;27;20042;-65
2022/01/21 04:02:53;;;;;;;14.57;1.92;;;1.80;99.90;;;;;;5137982;27;20035;-64
2022/01/21 04:05:19;;;;;;;6.78;1.65;;;1.80;99.90;;;;;;5142878;27;20034;-65
2022/01/21 04:07:45;;;;;;;10.73;1.73;;;1.80;99.90;;;;;;5140672;27;20087;-64
2022/01/21 04:10:11;;;;;;;10.18;1.88;;;1.80;99.90;;;;;;5140287;27;20420;-63
2022/01/21 04:12:37;;;;;;;11.43;2.28;;;1.80;99.90;;;;;;5123406;27;20034;-65
2022/01/21 04:15:04;;;;;;;11.40;2.00;;;1.80;99.90;;;;;;5158045;27;20060;-64
2022/01/21 04:17:30;;;;;;;9.60;2.03;;;1.80;99.90;;;;;;5139861;27;20364;-65
2022/01/21 04:19:56;;;;;;;10.43;1.88;;;1.80;99.90;;;;;;5140403;27;20038;-65
2022/01/21 04:22:22;;;;;;;11.27;2.00;;;1.80;99.90;;;;;;5140439;27;20035;-65
2022/01/21 04:24:49;;;;;;;11.38;2.47;;;1.80;99.90;;;;;;5139741;27;20039;-64
2022/01/21 04:27:16;;;;;;;16.15;2.40;;;1.90;99.90;;;;;;5119556;27;20078;-65
2022/01/21 04:29:42;;;;;;;12.18;1.90;;;1.90;99.90;;;;;;5119414;27;20042;-65
2022/01/21 04:32:09;;;;;;;12.07;2.10;;;1.90;99.90;;;;;;5119440;27;20050;-64
2022/01/21 04:34:35;;;;;;;15.60;2.25;;;1.90;99.90;;;;;;5137764;27;20039;-65
2022/01/21 04:37:01;;;;;;;15.10;1.85;;;1.90;99.90;;;;;;5137867;27;20042;-66
2022/01/21 04:39:33;;;;;;;14.18;2.10;;;1.80;99.90;;;;;;5123157;27;20102;-65
2022/01/21 04:47:27;;;;;;;9.68;1.95;;;1.80;99.90;;;;;;5137245;27;20126;-63
2022/01/21 04:49:54;;;;;;;10.10;1.83;;;1.80;99.90;;;;;;5118782;27;20108;-65
2022/01/21 04:52:20;;;;;;;6.93;1.77;;;1.70;99.90;;;;;;5118944;27;20526;-62
2022/01/21 04:54:46;;;;;;;9.13;2.03;;;1.90;99.90;;;;;;5137534;27;20043;-62
2022/01/21 04:57:12;;;;;;;11.55;2.30;;;1.90;99.90;;;;;;5138949;27;20461;-64
2022/01/21 04:59:39;;;;;;;11.45;1.63;;;2.00;99.90;;;;;;5139874;27;20031;-64
2022/01/21 05:02:05;;;;;;;8.10;1.58;;;2.00;99.90;;;;;;5158198;27;20031;-66
2022/01/21 05:04:31;;;;;;;11.07;2.15;;;2.00;99.90;;;;;;5139597;27;20038;-64
2022/01/21 05:06:58;;;;;;;8.73;1.92;;;2.00;99.90;;;;;;5120956;27;20039;-64
2022/01/21 05:09:29;;;;;;;7.03;1.55;;;2.10;99.90;;;;;;5118855;27;20032;-65
2022/01/21 05:11:56;;;;;;;10.23;1.63;;;2.10;99.90;;;;;;5137396;27;20074;-63
2022/01/21 05:14:26;;;;;;;10.55;1.98;;;2.20;99.90;;;;;;5118894;27;20074;-64
2022/01/21 05:17:01;;;;;;;9.57;1.80;;;2.20;99.90;;;;;;5153832;27;20089;-65
2022/01/21 05:19:26;;;;;;;9.40;1.80;;;2.20;99.90;;;;;;5157834;27;20070;-64
2022/01/21 05:21:52;;;;;;;8.45;1.98;;;2.10;99.90;;;;;;5139688;27;20070;-65
2022/01/21 05:24:20;;;;;;;12.98;2.20;;;2.10;99.90;;;;;;5157558;27;20096;-64
2022/01/21 05:26:53;;;;;;;8.23;1.70;;;2.10;99.90;;;;;;5140612;27;20047;-65
2022/01/21 05:29:21;;;;;;;9.00;1.70;;;2.00;99.90;;;;;;5118605;27;20122;-65
2022/01/21 05:31:47;;;;;;;10.52;1.60;;;2.00;99.90;;;;;;5118611;27;20035;-67
2022/01/21 05:34:13;;;;;;;9.48;1.70;;;2.00;99.90;;;;;;5118287;27;20082;-64
2022/01/21 05:36:40;;;;;;;8.73;1.50;;;1.90;99.90;;;;;;5105376;27;20062;-65
2022/01/21 05:39:17;;;;;;;10.77;1.85;;;1.90;99.90;;;;;;5157305;27;20340;-65
2022/01/21 05:41:49;;;;;;;10.80;2.35;;;1.90;99.90;;;;;;5139115;27;20050;-64
2022/01/21 05:47:00;;;;;;;11.57;2.05;;;1.90;99.90;;;;;;5120113;27;20258;-64
2022/01/21 05:49:28;;;;;;;11.82;2.03;;;1.90;99.90;;;;;;5136578;27;20043;-65
2022/01/21 05:52:02;;;;;;;10.93;1.85;;;1.90;99.90;;;;;;5129667;27;20095;-64
2022/01/21 05:54:27;;;;;;;10.05;1.98;;;1.90;99.90;;;;;;5132765;27;20099;-64
2022/01/21 05:56:53;;;;;;;14.93;1.92;;;1.90;99.90;;;;;;5116128;27;20364;-63
2022/01/21 05:59:19;;;;;;;13.65;2.00;;;1.90;99.90;;;;;;5127047;27;20030;-65
2022/01/21 06:01:45;;;;;;;9.90;2.25;;;1.90;99.90;;;;;;5137730;27;20626;-64
2022/01/21 06:04:11;;;;;;;13.27;2.83;;;2.00;99.90;;;;;;5134943;27;20083;-65
2022/01/21 06:06:38;;;;;;;17.40;2.58;;;2.00;99.90;;;;;;5151323;27;20030;-64
2022/01/21 06:09:04;;;;;;;11.38;2.00;;;2.00;99.90;;;;;;5151295;27;20113;-63
2022/01/21 06:11:30;;;;;;;10.20;2.20;;;1.90;99.90;;;;;;5118627;27;20083;-64
2022/01/21 06:13:56;;;;;;;15.43;2.13;;;1.90;99.90;;;;;;5138320;27;20038;-64
2022/01/21 06:16:21;;;;;;;10.05;1.83;;;1.90;99.90;;;;;;5154835;27;20379;-64
2022/01/21 06:18:47;;;;;;;9.43;1.75;;;1.80;99.90;;;;;;5138203;27;20125;-64
2022/01/21 06:21:13;;;;;;;11.15;2.63;;;1.80;99.90;;;;;;5156282;27;20138;-64
2022/01/21 06:23:39;;;;;;;10.35;1.80;;;1.80;99.90;;;;;;5138147;27;20108;-64
2022/01/21 06:26:05;;;;;;;9.07;1.88;;;1.90;99.90;;;;;;5118950;27;20039;-66
2022/01/21 06:28:31;;;;;;;10.00;1.90;;;1.90;99.90;;;;;;5137740;27;20035;-64
2022/01/21 06:30:56;;;;;;;9.05;1.75;;;2.00;99.90;;;;;;5131759;27;20053;-63
2022/01/21 06:33:22;;;;;;;10.38;1.80;;;2.00;99.90;;;;;;5137945;27;20038;-65
2022/01/21 06:35:52;;;;;;;10.68;1.85;;;2.00;99.90;;;;;;5136808;27;20116;-64
2022/01/21 06:38:18;;;;;;;8.20;1.70;;;2.10;99.90;;;;;;5137388;27;20410;-64
2022/01/21 06:40:44;;;;;;;8.13;1.63;;;2.10;99.90;;;;;;5137697;27;20119;-63
2022/01/21 06:43:10;;;;;;;13.18;2.33;;;2.20;99.90;;;;;;5156051;27;20056;-63
2022/01/21 06:45:36;;;;;;;8.20;2.60;;;2.30;99.90;;;;;;5133787;27;20043;-64
2022/01/21 06:48:03;;;;;;;10.60;2.20;;;2.30;99.90;;;;;;5153869;27;20034;-65
2022/01/21 06:50:35;;;;;;;6.60;2.00;;;2.30;99.90;;;;;;5132776;27;20121;-64
2022/01/21 06:53:01;;;;;;;14.07;2.22;;;2.30;99.90;;;;;;5155752;27;20098;-66
2022/01/21 06:55:26;;;;;;;12.80;2.55;;;2.20;99.90;;;;;;5151285;27;20031;-65
2022/01/21 06:57:52;;;;;;;13.52;2.85;;;2.20;99.90;;;;;;5134544;27;20043;-66
2022/01/21 07:00:19;;;;;;;10.20;2.50;;;2.20;99.90;;;;;;5154504;27;20033;-67
2022/01/21 07:02:49;;;;;;;9.88;2.47;;;2.20;99.90;;;;;;5155228;27;20034;-64
2022/01/21 07:05:16;;;;;;;10.25;2.00;;;2.20;99.90;;;;;;5135915;27;20386;-63
2022/01/21 07:07:42;;;;;;;9.20;1.58;;;2.20;99.90;;;;;;5155365;27;20382;-62
2022/01/21 07:10:10;;;;;;;8.80;1.70;;;2.10;99.90;;;;;;5146501;27;20033;-64
2022/01/21 07:12:43;;;;;;;10.93;2.10;;;2.10;99.90;;;;;;5111305;27;20039;-63
2022/01/21 07:15:10;;;;;;;8.50;2.08;;;2.10;99.90;;;;;;5144391;27;20455;-63
2022/01/21 07:17:36;;;;;;;7.10;1.60;;;2.10;99.90;;;;;;5139597;27;20054;-63
2022/01/21 07:20:04;;;;;;;13.32;3.33;;;2.10;99.90;;;;;;5148129;27;20082;-62
2022/01/21 07:22:31;;;;;;;9.63;1.95;;;2.10;99.90;;;;;;5130233;27;20034;-63
2022/01/21 07:24:58;;;;;;;6.07;1.70;;;2.00;99.90;;;;;;5118789;27;20352;-63
2022/01/21 07:27:24;;;;;;;11.82;2.50;;;2.00;99.90;;;;;;5106193;28;20039;-64
2022/01/21 07:29:50;;;;;;;10.35;1.92;;;2.00;99.90;;;;;;5153289;27;20095;-65
2022/01/21 07:32:16;;;;;;;11.45;1.98;;;1.90;99.90;;;;;;5155100;27;20070;-64
2022/01/21 07:34:42;;;;;;;10.07;2.10;;;1.90;99.90;;;;;;5155311;27;20070;-65
2022/01/21 07:37:07;;;;;;;14.90;2.35;;;2.00;99.90;;;;;;5146188;27;20027;-64
2022/01/21 07:39:33;;;;;;;15.50;2.33;;;2.00;99.90;;;;;;5116334;28;20156;-64
2022/01/21 07:41:59;;;;;;;12.50;1.73;;;2.10;99.90;;;;;;5134970;27;20047;-64
2022/01/21 07:44:24;;;;;;;10.95;2.15;;;2.10;99.90;;;;;;5134650;28;20039;-65
2022/01/21 07:46:50;;;;;;;13.82;2.33;;;2.10;99.90;;;;;;5116069;28;20049;-65
2022/01/21 07:49:16;;;;;;;19.45;2.63;;;2.10;99.90;;;;;;5134226;27;20047;-63
2022/01/21 07:51:45;;;;;;;12.25;2.78;;;2.10;99.90;;;;;;5116066;27;20043;-65
2022/01/21 07:54:12;;;;;;;12.43;2.05;;;2.10;99.90;;;;;;5149909;27;20414;-64
2022/01/21 07:56:37;;;;;;;16.55;2.70;;;2.10;99.90;;;;;;5103818;28;20421;-63
2022/01/21 07:59:06;;;;;;;12.55;2.35;;;2.10;99.90;;;;;;5115775;28;20043;-63
2022/01/21 08:01:31;;;;;;;16.27;2.30;;;2.20;99.90;;;;;;5116471;28;20035;-62
2022/01/21 08:03:57;;;;;;;12.15;2.47;;;2.20;99.90;;;;;;5116482;28;20409;-62
2022/01/21 08:06:23;;;;;;;15.32;2.92;;;2.20;99.90;;;;;;5145844;27;20687;-64
2022/01/21 08:08:48;;;;;;;17.10;3.45;;;2.20;99.90;;;;;;5154663;27;20035;-64
2022/01/21 08:11:14;;;;;;;21.23;3.20;;;2.30;99.90;;;;;;5156935;27;20035;-62
2022/01/21 08:13:40;;;;;;;12.90;2.83;;;2.30;99.90;;;;;;5158948;27;20035;-63
2022/01/21 08:16:06;;;;;;;11.65;2.17;;;2.30;99.90;;;;;;5130428;27;20477;-65
2022/01/21 08:18:31;;;;;;;13.00;2.30;;;2.30;99.90;;;;;;5137560;27;20062;-64
2022/01/21 08:20:57;;;;;;;13.15;2.10;;;2.30;99.90;;;;;;5137831;27;20046;-63
2022/01/21 08:23:23;;;;;;;14.13;2.30;;;2.30;99.90;;;;;;5119447;27;20096;-63
2022/01/21 08:25:48;;;;;;;14.95;2.60;;;2.30;99.90;;;;;;5144432;27;20030;-64
2022/01/21 08:28:14;;;;;;;14.75;2.58;;;2.30;99.90;;;;;;5158228;27;20152;-64
2022/01/21 08:30:40;;;;;;;10.93;2.35;;;2.30;99.90;;;;;;5158225;27;20359;-65
2022/01/21 08:33:06;;;;;;;17.38;3.50;;;2.40;99.90;;;;;;5158248;27;20074;-65
2022/01/21 08:35:32;;;;;;;20.75;3.63;;;2.50;99.90;;;;;;5153838;27;20030;-63
2022/01/21 08:37:59;;;;;;;19.00;3.95;;;2.60;99.90;;;;;;5134299;27;20058;-63
2022/01/21 08:40:25;;;;;;;17.20;3.70;;;2.60;99.90;;;;;;5158577;27;20049;-63
2022/01/21 08:42:52;;;;;;;19.77;3.85;;;2.70;99.90;;;;;;5139903;27;20041;-63
2022/01/21 08:45:19;;;;;;;28.10;4.40;;;2.80;99.90;;;;;;5137370;27;20057;-64
2022/01/21 08:47:45;;;;;;;17.75;4.75;;;2.80;99.90;;;;;;5137619;27;20118;-63
2022/01/21 08:50:14;;;;;;;26.42;5.28;;;2.90;99.90;;;;;;5118790;27;20047;-64
2022/01/21 08:52:41;;;;;;;24.23;5.75;;;3.00;99.90;;;;;;5137393;27;20432;-66
2022/01/21 08:55:14;;;;;;;25.63;6.15;;;3.10;99.90;;;;;;5137948;27;20385;-64
2022/01/21 08:57:42;;;;;;;24.25;6.00;;;3.30;99.90;;;;;;5139474;27;20042;-63
2022/01/21 09:00:11;;;;;;;20.60;4.20;;;3.40;99.90;;;;;;5139310;27;20043;-63
2022/01/21 09:02:37;;;;;;;14.23;2.97;;;3.50;99.90;;;;;;5157831;27;20093;-62
2022/01/21 09:05:03;;;;;;;12.15;3.05;;;3.70;99.90;;;;;;5157031;27;20451;-63
2022/01/21 09:07:31;;;;;;;12.85;3.03;;;3.80;99.90;;;;;;5137553;27;20067;-64
2022/01/21 09:09:57;;;;;;;10.30;2.53;;;3.90;99.90;;;;;;5126121;27;20035;-63
2022/01/21 09:12:22;;;;;;;14.10;2.22;;;4.00;99.90;;;;;;5119008;27;20103;-63
2022/01/21 09:14:49;;;;;;;13.90;2.50;;;4.00;99.90;;;;;;5136443;27;20459;-63
2022/01/21 09:17:15;;;;;;;14.65;2.58;;;4.00;99.90;;;;;;5118885;27;20066;-63
2022/01/21 09:19:40;;;;;;;13.35;2.53;;;4.00;99.90;;;;;;5136323;27;20031;-63
2022/01/21 09:22:06;;;;;;;13.38;2.45;;;3.90;99.90;;;;;;5117559;27;20050;-63
2022/01/21 09:24:33;;;;;;;15.70;2.60;;;3.90;99.90;;;;;;5136801;27;20099;-64
2022/01/21 09:27:05;;;;;;;21.48;2.70;;;3.90;99.90;;;;;;5134039;27;20057;-63
2022/01/21 09:29:32;;;;;;;14.95;2.67;;;3.90;99.90;;;;;;5156622;27;20451;-63
2022/01/21 09:31:58;;;;;;;13.07;2.63;;;3.90;99.90;;;;;;5157106;27;20170;-63
2022/01/21 09:34:27;;;;;;;13.93;3.75;;;3.90;99.90;;;;;;5156961;27;20518;-63
2022/01/21 09:36:54;;;;;;;20.13;3.97;;;3.90;99.90;;;;;;5147956;27;20054;-63
2022/01/21 09:39:20;;;;;;;17.17;3.67;;;3.90;99.90;;;;;;5156991;27;20167;-63
2022/01/21 09:41:48;;;;;;;14.93;3.35;;;3.90;99.90;;;;;;5156839;27;20043;-64
2022/01/21 09:44:16;;;;;;;15.20;3.38;;;3.90;99.90;;;;;;5157013;27;20027;-63
2022/01/21 09:46:45;;;;;;;16.20;3.95;;;4.00;99.90;;;;;;5138262;27;20047;-62
2022/01/21 09:49:26;;;;;;;18.08;4.00;;;4.10;99.90;;;;;;5156695;27;20360;-63
2022/01/21 09:51:59;;;;;;;17.13;4.20;;;4.20;99.90;;;;;;5156963;27;20042;-63
2022/01/21 09:54:28;;;;;;;16.63;3.83;;;4.40;99.90;;;;;;5156762;27;20074;-63
2022/01/21 09:56:55;;;;;;;14.98;3.08;;;4.50;99.90;;;;;;5141230;27;20043;-63
2022/01/21 09:59:24;;;;;;;13.95;3.10;;;4.60;99.90;;;;;;5135733;27;20436;-63
2022/01/21 10:01:56;;;;;;;16.80;3.40;;;4.60;99.90;;;;;;5135647;27;20478;-63
2022/01/21 10:04:26;;;;;;;18.23;3.35;;;4.70;99.90;;;;;;5136063;27;20043;-63
2022/01/21 10:06:54;;;;;;;13.52;3.53;;;4.80;99.90;;;;;;5150759;27;20050;-63
2022/01/21 10:09:21;;;;;;;23.77;4.20;;;4.80;99.90;;;;;;5156303;27;20155;-63
2022/01/21 10:11:50;;;;;;;21.23;5.15;;;4.80;99.90;;;;;;5156339;27;20076;-63
2022/01/21 10:14:19;;;;;;;26.17;6.82;;;4.90;99.90;;;;;;5156409;27;20043;-63
2022/01/21 10:16:46;;;;;;;30.50;7.07;;;4.90;99.90;;;;;;5141801;27;20058;-63
2022/01/21 10:19:12;;;;;;;29.58;7.70;;;4.90;99.90;;;;;;5135436;27;20111;-63
2022/01/21 10:21:43;;;;;;;28.63;7.45;;;4.90;99.90;;;;;;5117704;27;20452;-63
2022/01/21 10:24:14;;;;;;;24.35;5.85;;;5.00;99.90;;;;;;5135730;27;20368;-63
2022/01/21 10:26:55;;;;;;;20.95;5.25;;;5.00;99.90;;;;;;5148479;27;20095;-63
2022/01/21 10:29:22;;;;;;;18.67;3.80;;;5.00;99.90;;;;;;5137789;27;20066;-63
2022/01/21 10:31:57;;;;;;;22.15;4.43;;;5.10;99.90;;;;;;5156510;27;20038;-63
2022/01/21 10:34:44;;;;;;;21.65;4.75;;;5.20;99.90;;;;;;5155714;27;20094;-63
2022/01/21 10:37:31;;;;;;;25.50;5.68;;;5.30;99.90;;;;;;5147297;27;20050;-63
2022/01/21 10:40:04;;;;;;;25.58;8.82;;;5.30;99.90;;;;;;5117479;27;20111;-63
2022/01/21 10:42:30;;;;;;;32.55;10.75;;;5.40;99.90;;;;;;5135473;27;20043;-62
2022/01/21 10:44:56;;;;;;;37.15;11.98;;;5.60;99.90;;;;;;5117194;27;20046;-63
2022/01/21 10:47:31;;;;;;;30.42;10.43;;;5.70;99.90;;;;;;5135673;27;20049;-62
2022/01/21 10:50:07;;;;;;;34.30;10.60;;;5.90;99.90;;;;;;5155777;27;20038;-62
2022/01/21 10:52:35;;;;;;;28.45;9.20;;;5.90;99.90;;;;;;5156385;27;20044;-62
2022/01/21 10:55:01;;;;;;;23.15;5.43;;;6.00;99.90;;;;;;5156195;27;20042;-62
2022/01/21 10:57:30;;;;;;;20.08;3.35;;;6.10;99.90;;;;;;5149195;27;20027;-63
2022/01/21 11:00:07;;;;;;;18.50;3.00;;;6.10;99.90;;;;;;5135666;27;20039;-62
2022/01/21 11:02:52;;;;;;;16.40;3.77;;;6.20;99.90;;;;;;5135088;27;20038;-63
2022/01/21 11:05:23;;;;;;;17.23;3.42;;;6.40;99.90;;;;;;5136085;27;20356;-61
2022/01/21 11:08:06;;;;;;;15.52;2.70;;;6.50;99.90;;;;;;5138006;27;20105;-62
2022/01/21 11:10:32;;;;;;;16.92;3.00;;;6.60;99.90;;;;;;5137797;27;20050;-62
2022/01/21 11:13:21;;;;;;;12.65;2.95;;;6.60;99.90;;;;;;5137465;27;20039;-63
2022/01/21 11:15:48;;;;;;;11.93;2.40;;;6.60;99.90;;;;;;5154366;27;20407;-63
2022/01/21 11:18:18;;;;;;;18.83;3.78;;;6.60;99.90;;;;;;5155149;27;20049;-63
2022/01/21 11:20:49;;;;;;;15.68;2.85;;;6.60;99.90;;;;;;5137336;27;20034;-63
2022/01/21 11:23:17;;;;;;;12.13;2.67;;;6.70;99.90;;;;;;5155447;27;20478;-63
2022/01/21 11:25:44;;;;;;;15.05;3.05;;;6.80;99.90;;;;;;5136517;27;20459;-63
2022/01/21 11:28:18;;;;;;;18.15;3.10;;;6.80;99.90;;;;;;5155497;27;20137;-62
2022/01/21 11:30:44;;;;;;;15.18;3.30;;;6.80;99.90;;;;;;5155701;27;20039;-63
2022/01/21 11:33:10;;;;;;;17.98;5.72;;;6.90;99.90;;;;;;5137221;27;20046;-62
2022/01/21 11:35:37;;;;;;;18.35;3.70;;;6.90;99.90;;;;;;5152441;27;20453;-62
2022/01/21 11:38:06;;;;;;;14.45;3.13;;;6.90;99.90;;;;;;5150837;27;20046;-62
2022/01/21 11:40:33;;;;;;;16.60;3.05;;;6.80;99.90;;;;;;5155497;27;20049;-62
2022/01/21 11:42:58;;;;;;;17.33;3.33;;;6.90;99.90;;;;;;5155626;27;20039;-62
2022/01/21 11:50:38;;;;;;;18.05;3.00;;;6.80;99.90;;;;;;5159304;27;20446;-61
2022/01/21 11:53:05;;;;;;;11.50;2.53;;;6.80;99.90;;;;;;5159449;27;20110;-63
2022/01/21 11:55:46;;;;;;;14.55;2.70;;;6.90;99.90;;;;;;5156604;27;20118;-62
2022/01/21 11:58:21;;;;;;;17.48;3.05;;;6.90;99.90;;;;;;5138162;27;20100;-63
2022/01/21 12:00:48;;;;;;;13.77;2.47;;;6.90;99.90;;;;;;5138640;27;20110;-64
2022/01/21 12:03:21;;;;;;;13.68;2.92;;;6.90;99.90;;;;;;5138550;27;20042;-62
2022/01/21 12:05:47;;;;;;;18.55;3.65;;;6.90;99.90;;;;;;5142651;27;20046;-63
2022/01/21 12:08:45;;;;;;;15.40;2.75;;;7.00;99.90;;;;;;5155413;27;20087;-63
2022/01/21 12:11:35;;;;;;;17.75;2.67;;;7.00;99.90;;;;;;5134364;27;20058;-64
2022/01/21 12:14:21;;;;;;;18.27;3.22;;;6.90;99.90;;;;;;5158559;27;20044;-63
2022/01/21 12:16:53;;;;;;;13.43;2.70;;;6.90;99.90;;;;;;5145736;27;20123;-62
2022/01/21 12:19:31;;;;;;;16.00;2.58;;;6.90;99.90;;;;;;5157694;27;20041;-62
2022/01/21 12:22:08;;;;;;;14.52;2.55;;;6.90;99.90;;;;;;5120230;27;20026;-63
2022/01/21 12:25:04;;;;;;;14.70;3.05;;;6.90;99.90;;;;;;5158807;27;20137;-64
2022/01/21 12:27:30;;;;;;;9.82;2.55;;;6.90;99.90;;;;;;5139516;27;20517;-63
2022/01/21 12:30:18;;;;;;;14.13;2.95;;;6.90;99.90;;;;;;5140004;27;20130;-64
2022/01/21 12:33:03;;;;;;;18.90;3.10;;;6.90;99.90;;;;;;5158494;27;20053;-62
2022/01/21 12:35:30;;;;;;;18.55;2.75;;;6.90;99.90;;;;;;5157529;27;20042;-63
2022/01/21 12:40:54;;;;;;;12.43;2.60;;;6.90;99.90;;;;;;5137728;27;20054;-63
2022/01/21 12:43:46;;;;;;;17.70;2.78;;;6.90;99.90;;;;;;5157574;27;20045;-63
2022/01/21 12:46:24;;;;;;;13.95;2.83;;;6.90;99.90;;;;;;5149993;27;20035;-63
2022/01/21 12:48:51;;;;;;;15.65;2.50;;;7.00;99.90;;;;;;5137442;27;20058;-63
2022/01/21 12:51:35;;;;;;;15.70;2.50;;;6.90;99.90;;;;;;5119388;27;20401;-63
2022/01/21 12:56:53;;;;;;;14.90;2.75;;;7.00;99.90;;;;;;5147394;27;20111;-63
2022/01/21 12:59:19;;;;;;;18.77;3.03;;;7.10;99.90;;;;;;5156931;27;20039;-63
2022/01/21 13:01:46;;;;;;;14.65;2.75;;;7.10;99.90;;;;;;5157780;27;20078;-63
2022/01/21 13:04:32;;;;;;;16.83;3.38;;;7.00;99.90;;;;;;5158214;27;20103;-62
2022/01/21 13:07:24;;;;;;;13.68;2.40;;;7.00;99.90;;;;;;5142730;27;20095;-63
2022/01/21 13:10:29;;;;;;;15.73;2.80;;;7.00;99.90;;;;;;5118869;27;20035;-62
2022/01/21 13:13:13;;;;;;;16.08;3.08;;;7.00;99.90;;;;;;5034069;28;20120;-63
2022/01/21 13:15:39;;;;;;;15.95;2.80;;;7.00;99.90;;;;;;5036385;28;20046;-63
2022/01/21 13:18:10;;;;;;;14.88;3.40;;;7.00;99.90;;;;;;5084401;28;20055;-64
2022/01/21 13:20:42;;;;;;;15.00;3.13;;;7.00;99.90;;;;;;5098112;28;20122;-62
2022/01/21 13:23:08;;;;;;;16.75;3.03;;;7.00;99.90;;;;;;5098219;28;20039;-62
2022/01/21 13:25:35;;;;;;;16.80;2.90;;;7.00;99.90;;;;;;5115330;28;20043;-64
2022/01/21 13:28:03;;;;;;;21.83;3.92;;;7.00;99.90;;;;;;5115933;28;20047;-62
2022/01/21 13:30:31;;;;;;;16.75;3.15;;;7.00;99.90;;;;;;5116131;28;20126;-63
2022/01/21 13:33:04;;;;;;;19.40;3.78;;;7.00;99.90;;;;;;5116090;28;20080;-62
2022/01/21 13:35:30;;;;;;;22.70;5.10;;;7.00;99.90;;;;;;5096791;28;20059;-63
2022/01/21 13:38:08;;;;;;;17.33;3.00;;;7.00;99.90;;;;;;5097897;28;20123;-62
2022/01/21 13:40:46;;;;;;;18.13;3.85;;;7.00;99.90;;;;;;5081131;28;20043;-62
2022/01/21 13:43:32;;;;;;;18.38;3.35;;;7.00;99.90;;;;;;5097651;28;20039;-63
2022/01/21 13:46:00;;;;;;;13.38;2.75;;;7.00;99.90;;;;;;5109826;28;20040;-63
2022/01/21 13:48:31;;;;;;;15.40;2.70;;;7.00;99.90;;;;;;5094993;28;20048;-65
2022/01/21 13:51:01;;;;;;;19.48;2.75;;;7.00;99.90;;;;;;5095323;28;20039;-62
2022/01/21 13:53:27;;;;;;;15.88;2.72;;;6.90;99.90;;;;;;5095192;28;20040;-66
2022/01/21 13:56:00;;;;;;;22.00;4.30;;;6.90;99.90;;;;;;5086381;28;20048;-64